Riviere-Saint-Jean, Canada
Current Conditions -  °F | °C
As of 2:00 PM on Monday 22 Dec 2014 (Local Time) from CYGV Reporting Station
Overcast Overcast  
Wind Chill: 19°   Ceiling: 1500
Heat Index: 19°   Visibility: 9mi
Dew Point: 18°   Wind: 2mph
Humidity: 93%   Direction: 80°E
Pressure: 30.44"   Gusts: NA
Location:  50.28°N, 64.33°W
Report Text: CYGV 221900Z AUTO 08002KT 9SM OVC015 M07/M08 A3044 RMK SLP312
Loading
Personal Weather Stations






























Interactive Weather Map New forecast layout! Learn more

10-Day Weather Forecast

Advertisements
Track Severe Weather on mobile